sensor_id;sensor_type;location;lat;lon;timestamp;P1;durP1;ratioP1;P2;durP2;ratioP2
73697;SDS011;62004;42.566;23.164;2022-12-18T00:00:54;8.73;;;5.87;;
73697;SDS011;62004;42.566;23.164;2022-12-18T00:03:20;12.03;;;7.17;;
73697;SDS011;62004;42.566;23.164;2022-12-18T00:05:45;34.73;;;6.47;;
73697;SDS011;62004;42.566;23.164;2022-12-18T00:08:11;72.07;;;7.53;;
73697;SDS011;62004;42.566;23.164;2022-12-18T00:10:36;65.70;;;7.17;;
73697;SDS011;62004;42.566;23.164;2022-12-18T00:13:01;9.10;;;5.00;;
73697;SDS011;62004;42.566;23.164;2022-12-18T00:15:26;7.37;;;4.77;;
73697;SDS011;62004;42.566;23.164;2022-12-18T00:17:52;12.80;;;7.03;;
73697;SDS011;62004;42.566;23.164;2022-12-18T00:20:17;8.80;;;5.50;;
73697;SDS011;62004;42.566;23.164;2022-12-18T00:22:48;104.50;;;8.38;;
73697;SDS011;62004;42.566;23.164;2022-12-18T00:25:13;10.57;;;5.90;;
73697;SDS011;62004;42.566;23.164;2022-12-18T00:27:39;19.03;;;5.77;;
73697;SDS011;62004;42.566;23.164;2022-12-18T00:30:04;9.02;;;4.88;;
73697;SDS011;62004;42.566;23.164;2022-12-18T00:32:30;24.95;;;6.53;;
73697;SDS011;62004;42.566;23.164;2022-12-18T00:34:55;9.50;;;6.03;;
73697;SDS011;62004;42.566;23.164;2022-12-18T00:37:20;7.37;;;5.13;;
73697;SDS011;62004;42.566;23.164;2022-12-18T00:39:47;208.80;;;12.97;;
73697;SDS011;62004;42.566;23.164;2022-12-18T00:42:12;26.52;;;6.63;;
73697;SDS011;62004;42.566;23.164;2022-12-18T00:44:56;32.88;;;6.45;;
73697;SDS011;62004;42.566;23.164;2022-12-18T00:47:21;121.60;;;9.50;;
73697;SDS011;62004;42.566;23.164;2022-12-18T00:49:47;75.30;;;8.73;;
73697;SDS011;62004;42.566;23.164;2022-12-18T00:52:12;62.83;;;8.23;;
73697;SDS011;62004;42.566;23.164;2022-12-18T00:54:37;332.37;;;17.57;;
73697;SDS011;62004;42.566;23.164;2022-12-18T00:57:02;350.70;;;20.70;;
73697;SDS011;62004;42.566;23.164;2022-12-18T00:59:28;236.05;;;14.25;;
73697;SDS011;62004;42.566;23.164;2022-12-18T01:01:53;21.70;;;7.10;;
73697;SDS011;62004;42.566;23.164;2022-12-18T01:04:18;45.63;;;8.13;;
73697;SDS011;62004;42.566;23.164;2022-12-18T01:06:43;22.00;;;7.90;;
73697;SDS011;62004;42.566;23.164;2022-12-18T01:09:08;153.63;;;10.83;;
73697;SDS011;62004;42.566;23.164;2022-12-18T01:11:34;71.77;;;9.77;;
73697;SDS011;62004;42.566;23.164;2022-12-18T01:13:59;253.37;;;15.77;;
73697;SDS011;62004;42.566;23.164;2022-12-18T01:16:24;131.07;;;11.63;;
73697;SDS011;62004;42.566;23.164;2022-12-18T01:18:53;91.57;;;12.53;;
73697;SDS011;62004;42.566;23.164;2022-12-18T01:21:19;7.93;;;5.68;;
73697;SDS011;62004;42.566;23.164;2022-12-18T01:23:44;194.98;;;14.30;;
73697;SDS011;62004;42.566;23.164;2022-12-18T01:26:13;46.77;;;10.03;;
73697;SDS011;62004;42.566;23.164;2022-12-18T01:28:39;86.78;;;11.88;;
73697;SDS011;62004;42.566;23.164;2022-12-18T01:33:36;130.10;;;12.63;;
73697;SDS011;62004;42.566;23.164;2022-12-18T01:36:01;59.40;;;8.35;;
73697;SDS011;62004;42.566;23.164;2022-12-18T01:38:27;83.40;;;10.33;;
73697;SDS011;62004;42.566;23.164;2022-12-18T01:40:57;270.95;;;18.05;;
73697;SDS011;62004;42.566;23.164;2022-12-18T01:43:22;20.15;;;8.32;;
73697;SDS011;62004;42.566;23.164;2022-12-18T01:45:47;79.27;;;11.33;;
73697;SDS011;62004;42.566;23.164;2022-12-18T01:48:12;92.53;;;10.17;;
73697;SDS011;62004;42.566;23.164;2022-12-18T01:50:38;10.37;;;6.27;;
73697;SDS011;62004;42.566;23.164;2022-12-18T01:55:45;20.05;;;7.95;;
73697;SDS011;62004;42.566;23.164;2022-12-18T01:58:11;34.10;;;7.90;;
73697;SDS011;62004;42.566;23.164;2022-12-18T02:00:37;37.55;;;8.45;;
73697;SDS011;62004;42.566;23.164;2022-12-18T02:03:02;28.40;;;8.23;;
73697;SDS011;62004;42.566;23.164;2022-12-18T02:16:00;165.35;;;16.02;;
73697;SDS011;62004;42.566;23.164;2022-12-18T02:18:21;46.20;;;7.15;;
73697;SDS011;62004;42.566;23.164;2022-12-18T02:20:48;231.98;;;15.63;;
73697;SDS011;62004;42.566;23.164;2022-12-18T02:23:27;49.90;;;8.60;;
73697;SDS011;62004;42.566;23.164;2022-12-18T02:28:39;46.67;;;9.00;;
73697;SDS011;62004;42.566;23.164;2022-12-18T02:31:06;13.10;;;6.60;;
73697;SDS011;62004;42.566;23.164;2022-12-18T02:33:33;8.98;;;5.63;;
73697;SDS011;62004;42.566;23.164;2022-12-18T02:35:58;11.95;;;6.57;;
73697;SDS011;62004;42.566;23.164;2022-12-18T02:38:24;12.23;;;6.47;;
73697;SDS011;62004;42.566;23.164;2022-12-18T02:40:50;13.02;;;7.15;;
73697;SDS011;62004;42.566;23.164;2022-12-18T02:43:16;13.55;;;7.20;;
73697;SDS011;62004;42.566;23.164;2022-12-18T02:45:54;11.13;;;6.53;;
73697;SDS011;62004;42.566;23.164;2022-12-18T02:48:24;15.63;;;8.10;;
73697;SDS011;62004;42.566;23.164;2022-12-18T02:53:39;16.65;;;8.27;;
73697;SDS011;62004;42.566;23.164;2022-12-18T02:58:55;27.17;;;8.93;;
73697;SDS011;62004;42.566;23.164;2022-12-18T03:04:15;17.58;;;7.35;;
73697;SDS011;62004;42.566;23.164;2022-12-18T03:06:46;56.28;;;8.80;;
73697;SDS011;62004;42.566;23.164;2022-12-18T03:09:14;8.13;;;4.80;;
73697;SDS011;62004;42.566;23.164;2022-12-18T03:11:41;8.73;;;5.47;;
73697;SDS011;62004;42.566;23.164;2022-12-18T03:14:26;7.03;;;5.15;;
73697;SDS011;62004;42.566;23.164;2022-12-18T03:16:54;8.20;;;5.03;;
73697;SDS011;62004;42.566;23.164;2022-12-18T03:19:24;7.15;;;4.85;;
73697;SDS011;62004;42.566;23.164;2022-12-18T03:21:54;8.50;;;5.15;;
73697;SDS011;62004;42.566;23.164;2022-12-18T03:24:20;8.63;;;4.97;;
73697;SDS011;62004;42.566;23.164;2022-12-18T03:26:47;7.85;;;4.95;;
73697;SDS011;62004;42.566;23.164;2022-12-18T03:29:14;7.22;;;4.28;;
73697;SDS011;62004;42.566;23.164;2022-12-18T03:31:42;8.98;;;5.32;;
73697;SDS011;62004;42.566;23.164;2022-12-18T03:34:14;6.95;;;4.45;;
73697;SDS011;62004;42.566;23.164;2022-12-18T03:39:05;7.28;;;4.30;;
73697;SDS011;62004;42.566;23.164;2022-12-18T03:41:38;7.65;;;4.35;;
73697;SDS011;62004;42.566;23.164;2022-12-18T03:46:41;7.15;;;4.20;;
73697;SDS011;62004;42.566;23.164;2022-12-18T03:49:11;7.85;;;4.68;;
73697;SDS011;62004;42.566;23.164;2022-12-18T03:51:44;6.88;;;4.53;;
73697;SDS011;62004;42.566;23.164;2022-12-18T03:54:13;5.53;;;3.85;;
73697;SDS011;62004;42.566;23.164;2022-12-18T03:56:40;6.47;;;4.55;;
73697;SDS011;62004;42.566;23.164;2022-12-18T03:59:07;6.53;;;4.25;;
73697;SDS011;62004;42.566;23.164;2022-12-18T04:01:45;4.95;;;3.58;;
73697;SDS011;62004;42.566;23.164;2022-12-18T04:04:11;7.00;;;5.13;;
73697;SDS011;62004;42.566;23.164;2022-12-18T04:06:37;6.70;;;4.63;;
73697;SDS011;62004;42.566;23.164;2022-12-18T04:09:03;9.63;;;5.85;;
73697;SDS011;62004;42.566;23.164;2022-12-18T04:11:29;9.93;;;6.40;;
73697;SDS011;62004;42.566;23.164;2022-12-18T04:13:55;7.00;;;5.03;;
73697;SDS011;62004;42.566;23.164;2022-12-18T04:16:21;10.20;;;6.15;;
73697;SDS011;62004;42.566;23.164;2022-12-18T04:18:46;10.17;;;5.93;;
73697;SDS011;62004;42.566;23.164;2022-12-18T04:21:11;11.33;;;6.03;;
73697;SDS011;62004;42.566;23.164;2022-12-18T04:23:37;11.00;;;5.73;;
73697;SDS011;62004;42.566;23.164;2022-12-18T04:26:02;9.60;;;5.63;;
73697;SDS011;62004;42.566;23.164;2022-12-18T04:28:27;9.77;;;5.03;;
73697;SDS011;62004;42.566;23.164;2022-12-18T04:30:52;7.90;;;5.00;;
73697;SDS011;62004;42.566;23.164;2022-12-18T04:33:18;7.83;;;4.40;;
73697;SDS011;62004;42.566;23.164;2022-12-18T04:35:43;8.93;;;4.53;;
73697;SDS011;62004;42.566;23.164;2022-12-18T04:38:08;8.03;;;5.03;;
73697;SDS011;62004;42.566;23.164;2022-12-18T04:40:35;8.95;;;5.50;;
73697;SDS011;62004;42.566;23.164;2022-12-18T04:43:00;31.35;;;8.60;;
73697;SDS011;62004;42.566;23.164;2022-12-18T04:45:25;12.90;;;7.00;;
73697;SDS011;62004;42.566;23.164;2022-12-18T04:47:51;10.80;;;6.65;;
73697;SDS011;62004;42.566;23.164;2022-12-18T04:50:16;18.67;;;7.17;;
73697;SDS011;62004;42.566;23.164;2022-12-18T04:52:41;9.77;;;6.37;;
73697;SDS011;62004;42.566;23.164;2022-12-18T04:55:06;9.67;;;6.47;;
73697;SDS011;62004;42.566;23.164;2022-12-18T04:57:32;14.30;;;7.05;;
73697;SDS011;62004;42.566;23.164;2022-12-18T04:59:57;15.00;;;7.33;;
73697;SDS011;62004;42.566;23.164;2022-12-18T05:02:22;12.45;;;7.00;;
73697;SDS011;62004;42.566;23.164;2022-12-18T05:04:48;12.97;;;6.87;;
73697;SDS011;62004;42.566;23.164;2022-12-18T05:07:13;8.20;;;5.73;;
73697;SDS011;62004;42.566;23.164;2022-12-18T05:09:38;11.93;;;6.60;;
73697;SDS011;62004;42.566;23.164;2022-12-18T05:12:03;12.60;;;6.63;;
73697;SDS011;62004;42.566;23.164;2022-12-18T05:14:29;12.02;;;6.63;;
73697;SDS011;62004;42.566;23.164;2022-12-18T05:16:54;10.40;;;6.55;;
73697;SDS011;62004;42.566;23.164;2022-12-18T05:19:19;8.45;;;5.78;;
73697;SDS011;62004;42.566;23.164;2022-12-18T05:21:45;10.53;;;5.67;;
73697;SDS011;62004;42.566;23.164;2022-12-18T05:24:10;10.77;;;6.33;;
73697;SDS011;62004;42.566;23.164;2022-12-18T05:26:35;14.97;;;7.57;;
73697;SDS011;62004;42.566;23.164;2022-12-18T05:29:00;15.07;;;7.27;;
73697;SDS011;62004;42.566;23.164;2022-12-18T05:31:26;10.43;;;6.63;;
73697;SDS011;62004;42.566;23.164;2022-12-18T05:33:51;14.77;;;7.70;;
73697;SDS011;62004;42.566;23.164;2022-12-18T05:36:16;10.53;;;6.50;;
73697;SDS011;62004;42.566;23.164;2022-12-18T05:38:41;12.67;;;6.83;;
73697;SDS011;62004;42.566;23.164;2022-12-18T05:41:07;15.33;;;7.57;;
73697;SDS011;62004;42.566;23.164;2022-12-18T05:43:33;12.32;;;7.03;;
73697;SDS011;62004;42.566;23.164;2022-12-18T05:46:03;11.30;;;6.60;;
73697;SDS011;62004;42.566;23.164;2022-12-18T05:48:28;10.98;;;7.00;;
73697;SDS011;62004;42.566;23.164;2022-12-18T05:50:53;10.85;;;6.55;;
73697;SDS011;62004;42.566;23.164;2022-12-18T05:53:19;13.60;;;6.80;;
73697;SDS011;62004;42.566;23.164;2022-12-18T05:55:45;14.90;;;7.63;;
73697;SDS011;62004;42.566;23.164;2022-12-18T05:58:12;9.50;;;5.68;;
73697;SDS011;62004;42.566;23.164;2022-12-18T06:00:38;13.18;;;7.07;;
73697;SDS011;62004;42.566;23.164;2022-12-18T06:03:07;12.30;;;7.18;;
73697;SDS011;62004;42.566;23.164;2022-12-18T06:05:36;12.88;;;7.40;;
73697;SDS011;62004;42.566;23.164;2022-12-18T06:08:02;10.18;;;6.15;;
73697;SDS011;62004;42.566;23.164;2022-12-18T06:10:27;12.63;;;6.70;;
73697;SDS011;62004;42.566;23.164;2022-12-18T06:12:52;14.10;;;7.67;;
73697;SDS011;62004;42.566;23.164;2022-12-18T06:15:18;13.27;;;7.77;;
73697;SDS011;62004;42.566;23.164;2022-12-18T06:17:43;13.67;;;7.40;;
73697;SDS011;62004;42.566;23.164;2022-12-18T06:20:08;14.60;;;7.83;;
73697;SDS011;62004;42.566;23.164;2022-12-18T06:22:34;11.68;;;7.03;;
73697;SDS011;62004;42.566;23.164;2022-12-18T06:25:00;11.80;;;6.40;;
73697;SDS011;62004;42.566;23.164;2022-12-18T06:27:25;14.50;;;7.13;;
73697;SDS011;62004;42.566;23.164;2022-12-18T06:29:50;13.73;;;7.22;;
73697;SDS011;62004;42.566;23.164;2022-12-18T06:32:15;12.90;;;7.03;;
73697;SDS011;62004;42.566;23.164;2022-12-18T06:34:41;17.17;;;8.32;;
73697;SDS011;62004;42.566;23.164;2022-12-18T06:37:06;15.17;;;8.07;;
73697;SDS011;62004;42.566;23.164;2022-12-18T06:39:32;17.53;;;8.13;;
73697;SDS011;62004;42.566;23.164;2022-12-18T06:41:57;14.53;;;8.17;;
73697;SDS011;62004;42.566;23.164;2022-12-18T06:44:22;16.53;;;8.53;;
73697;SDS011;62004;42.566;23.164;2022-12-18T06:46:48;16.25;;;8.05;;
73697;SDS011;62004;42.566;23.164;2022-12-18T06:49:13;14.23;;;7.97;;
73697;SDS011;62004;42.566;23.164;2022-12-18T06:51:38;14.10;;;7.80;;
73697;SDS011;62004;42.566;23.164;2022-12-18T06:54:03;14.75;;;8.05;;
73697;SDS011;62004;42.566;23.164;2022-12-18T06:56:29;13.93;;;7.07;;
73697;SDS011;62004;42.566;23.164;2022-12-18T06:58:54;13.80;;;7.53;;
73697;SDS011;62004;42.566;23.164;2022-12-18T07:01:20;14.65;;;7.75;;
73697;SDS011;62004;42.566;23.164;2022-12-18T07:03:45;14.85;;;7.45;;
73697;SDS011;62004;42.566;23.164;2022-12-18T07:06:14;16.50;;;8.80;;
73697;SDS011;62004;42.566;23.164;2022-12-18T07:08:39;17.90;;;10.48;;
73697;SDS011;62004;42.566;23.164;2022-12-18T07:11:05;19.83;;;10.03;;
73697;SDS011;62004;42.566;23.164;2022-12-18T07:13:30;21.00;;;11.00;;
73697;SDS011;62004;42.566;23.164;2022-12-18T07:16:02;15.73;;;9.13;;
73697;SDS011;62004;42.566;23.164;2022-12-18T07:18:27;18.63;;;10.23;;
73697;SDS011;62004;42.566;23.164;2022-12-18T07:20:53;18.67;;;9.47;;
73697;SDS011;62004;42.566;23.164;2022-12-18T07:23:18;19.70;;;9.70;;
73697;SDS011;62004;42.566;23.164;2022-12-18T07:25:43;18.27;;;9.38;;
73697;SDS011;62004;42.566;23.164;2022-12-18T07:28:08;16.13;;;8.77;;
73697;SDS011;62004;42.566;23.164;2022-12-18T07:30:36;15.70;;;8.25;;
73697;SDS011;62004;42.566;23.164;2022-12-18T07:33:01;17.20;;;8.75;;
73697;SDS011;62004;42.566;23.164;2022-12-18T07:35:26;22.63;;;10.30;;
73697;SDS011;62004;42.566;23.164;2022-12-18T07:37:52;18.57;;;9.37;;
73697;SDS011;62004;42.566;23.164;2022-12-18T07:40:17;18.70;;;9.10;;
73697;SDS011;62004;42.566;23.164;2022-12-18T07:42:42;21.77;;;9.63;;
73697;SDS011;62004;42.566;23.164;2022-12-18T07:45:07;20.25;;;9.50;;
73697;SDS011;62004;42.566;23.164;2022-12-18T07:47:34;21.13;;;10.25;;
73697;SDS011;62004;42.566;23.164;2022-12-18T07:50:00;22.77;;;11.00;;
73697;SDS011;62004;42.566;23.164;2022-12-18T07:52:25;19.37;;;10.13;;
73697;SDS011;62004;42.566;23.164;2022-12-18T07:54:50;24.17;;;10.27;;
73697;SDS011;62004;42.566;23.164;2022-12-18T07:57:16;22.63;;;10.40;;
73697;SDS011;62004;42.566;23.164;2022-12-18T07:59:41;19.20;;;9.25;;
73697;SDS011;62004;42.566;23.164;2022-12-18T08:02:06;20.25;;;9.90;;
73697;SDS011;62004;42.566;23.164;2022-12-18T08:04:32;19.47;;;9.30;;
73697;SDS011;62004;42.566;23.164;2022-12-18T08:06:57;16.53;;;8.80;;
73697;SDS011;62004;42.566;23.164;2022-12-18T08:09:22;20.17;;;10.03;;
73697;SDS011;62004;42.566;23.164;2022-12-18T08:11:47;19.20;;;10.73;;
73697;SDS011;62004;42.566;23.164;2022-12-18T08:14:13;20.30;;;10.70;;
73697;SDS011;62004;42.566;23.164;2022-12-18T08:16:39;19.25;;;10.35;;
73697;SDS011;62004;42.566;23.164;2022-12-18T08:19:04;21.67;;;9.97;;
73697;SDS011;62004;42.566;23.164;2022-12-18T08:21:30;26.07;;;10.73;;
73697;SDS011;62004;42.566;23.164;2022-12-18T08:23:56;21.25;;;10.77;;
73697;SDS011;62004;42.566;23.164;2022-12-18T08:26:22;20.40;;;10.45;;
73697;SDS011;62004;42.566;23.164;2022-12-18T08:28:48;23.60;;;10.98;;
73697;SDS011;62004;42.566;23.164;2022-12-18T08:31:13;22.50;;;11.05;;
73697;SDS011;62004;42.566;23.164;2022-12-18T08:33:38;19.47;;;9.97;;
73697;SDS011;62004;42.566;23.164;2022-12-18T08:36:04;18.25;;;9.75;;
73697;SDS011;62004;42.566;23.164;2022-12-18T08:38:30;17.75;;;9.10;;
73697;SDS011;62004;42.566;23.164;2022-12-18T08:40:59;18.95;;;9.57;;
73697;SDS011;62004;42.566;23.164;2022-12-18T08:43:25;18.08;;;9.52;;
73697;SDS011;62004;42.566;23.164;2022-12-18T08:46:17;20.10;;;9.13;;
73697;SDS011;62004;42.566;23.164;2022-12-18T08:48:42;18.10;;;9.57;;
73697;SDS011;62004;42.566;23.164;2022-12-18T08:51:08;19.13;;;9.70;;
73697;SDS011;62004;42.566;23.164;2022-12-18T08:53:36;20.35;;;9.75;;
73697;SDS011;62004;42.566;23.164;2022-12-18T08:56:02;18.63;;;8.93;;
73697;SDS011;62004;42.566;23.164;2022-12-18T08:58:27;22.88;;;9.75;;
73697;SDS011;62004;42.566;23.164;2022-12-18T09:00:52;23.47;;;10.67;;
73697;SDS011;62004;42.566;23.164;2022-12-18T09:03:18;22.70;;;10.63;;
73697;SDS011;62004;42.566;23.164;2022-12-18T09:05:45;19.45;;;9.68;;
73697;SDS011;62004;42.566;23.164;2022-12-18T09:08:11;26.30;;;10.27;;
73697;SDS011;62004;42.566;23.164;2022-12-18T09:10:45;19.73;;;10.18;;
73697;SDS011;62004;42.566;23.164;2022-12-18T09:13:11;26.38;;;10.38;;
73697;SDS011;62004;42.566;23.164;2022-12-18T09:15:40;22.33;;;10.05;;
73697;SDS011;62004;42.566;23.164;2022-12-18T09:18:06;26.02;;;10.00;;
73697;SDS011;62004;42.566;23.164;2022-12-18T09:20:32;23.20;;;9.25;;
73697;SDS011;62004;42.566;23.164;2022-12-18T09:22:57;18.80;;;8.57;;
73697;SDS011;62004;42.566;23.164;2022-12-18T09:25:22;22.40;;;11.03;;
73697;SDS011;62004;42.566;23.164;2022-12-18T09:27:47;22.73;;;10.00;;
73697;SDS011;62004;42.566;23.164;2022-12-18T09:30:13;20.30;;;10.00;;
73697;SDS011;62004;42.566;23.164;2022-12-18T09:32:38;24.23;;;10.43;;
73697;SDS011;62004;42.566;23.164;2022-12-18T09:35:03;17.57;;;9.23;;
73697;SDS011;62004;42.566;23.164;2022-12-18T09:37:29;20.75;;;10.77;;
73697;SDS011;62004;42.566;23.164;2022-12-18T09:39:54;20.73;;;9.47;;
73697;SDS011;62004;42.566;23.164;2022-12-18T09:42:20;22.67;;;10.17;;
73697;SDS011;62004;42.566;23.164;2022-12-18T09:44:49;24.60;;;11.85;;
73697;SDS011;62004;42.566;23.164;2022-12-18T09:47:25;24.50;;;11.88;;
73697;SDS011;62004;42.566;23.164;2022-12-18T09:49:55;21.63;;;10.98;;
73697;SDS011;62004;42.566;23.164;2022-12-18T09:55:00;20.77;;;10.32;;
73697;SDS011;62004;42.566;23.164;2022-12-18T09:57:26;18.70;;;9.70;;
73697;SDS011;62004;42.566;23.164;2022-12-18T09:59:54;26.55;;;10.07;;
73697;SDS011;62004;42.566;23.164;2022-12-18T10:02:21;20.73;;;9.65;;
73697;SDS011;62004;42.566;23.164;2022-12-18T10:10:43;17.43;;;9.27;;
73697;SDS011;62004;42.566;23.164;2022-12-18T10:25:22;16.83;;;9.25;;
73697;SDS011;62004;42.566;23.164;2022-12-18T10:27:51;24.95;;;9.50;;
73697;SDS011;62004;42.566;23.164;2022-12-18T10:30:18;18.02;;;9.00;;
73697;SDS011;62004;42.566;23.164;2022-12-18T10:32:44;23.17;;;9.25;;
73697;SDS011;62004;42.566;23.164;2022-12-18T10:35:20;19.88;;;8.80;;
73697;SDS011;62004;42.566;23.164;2022-12-18T10:37:59;27.13;;;9.82;;
73697;SDS011;62004;42.566;23.164;2022-12-18T10:40:25;21.30;;;9.05;;
73697;SDS011;62004;42.566;23.164;2022-12-18T10:43:03;24.45;;;9.90;;
73697;SDS011;62004;42.566;23.164;2022-12-18T10:45:29;25.48;;;8.90;;
73697;SDS011;62004;42.566;23.164;2022-12-18T10:47:54;27.25;;;11.23;;
73697;SDS011;62004;42.566;23.164;2022-12-18T10:50:22;17.60;;;8.57;;
73697;SDS011;62004;42.566;23.164;2022-12-18T10:52:55;20.10;;;8.90;;
73697;SDS011;62004;42.566;23.164;2022-12-18T10:55:22;24.05;;;10.50;;
73697;SDS011;62004;42.566;23.164;2022-12-18T10:57:47;23.10;;;9.63;;
73697;SDS011;62004;42.566;23.164;2022-12-18T11:02:44;21.10;;;9.45;;
73697;SDS011;62004;42.566;23.164;2022-12-18T11:05:28;18.60;;;9.65;;
73697;SDS011;62004;42.566;23.164;2022-12-18T11:07:54;21.50;;;9.15;;
73697;SDS011;62004;42.566;23.164;2022-12-18T11:10:22;15.98;;;8.85;;
73697;SDS011;62004;42.566;23.164;2022-12-18T11:12:47;20.80;;;9.88;;
73697;SDS011;62004;42.566;23.164;2022-12-18T11:15:14;19.77;;;9.02;;
73697;SDS011;62004;42.566;23.164;2022-12-18T11:17:40;14.10;;;7.55;;
73697;SDS011;62004;42.566;23.164;2022-12-18T11:20:07;12.88;;;5.90;;
73697;SDS011;62004;42.566;23.164;2022-12-18T11:22:43;11.20;;;6.25;;
73697;SDS011;62004;42.566;23.164;2022-12-18T11:25:18;14.18;;;6.63;;
73697;SDS011;62004;42.566;23.164;2022-12-18T11:27:58;11.55;;;6.40;;
73697;SDS011;62004;42.566;23.164;2022-12-18T11:30:25;14.45;;;7.32;;
73697;SDS011;62004;42.566;23.164;2022-12-18T11:35:37;14.70;;;7.53;;
73697;SDS011;62004;42.566;23.164;2022-12-18T11:38:05;12.90;;;8.15;;
73697;SDS011;62004;42.566;23.164;2022-12-18T11:40:35;11.93;;;6.40;;
73697;SDS011;62004;42.566;23.164;2022-12-18T11:43:13;12.57;;;7.03;;
73697;SDS011;62004;42.566;23.164;2022-12-18T11:45:45;10.07;;;5.03;;
73697;SDS011;62004;42.566;23.164;2022-12-18T11:48:18;13.63;;;7.25;;
73697;SDS011;62004;42.566;23.164;2022-12-18T11:50:53;17.17;;;8.27;;
73697;SDS011;62004;42.566;23.164;2022-12-18T11:53:19;14.43;;;8.15;;
73697;SDS011;62004;42.566;23.164;2022-12-18T11:56:05;15.85;;;8.13;;
73697;SDS011;62004;42.566;23.164;2022-12-18T11:58:46;13.77;;;7.68;;
73697;SDS011;62004;42.566;23.164;2022-12-18T12:01:25;11.32;;;6.15;;
73697;SDS011;62004;42.566;23.164;2022-12-18T12:06:45;9.88;;;5.63;;
73697;SDS011;62004;42.566;23.164;2022-12-18T12:21:43;13.63;;;6.57;;
73697;SDS011;62004;42.566;23.164;2022-12-18T12:27:06;11.80;;;6.13;;
73697;SDS011;62004;42.566;23.164;2022-12-18T12:34:52;10.30;;;5.40;;
73697;SDS011;62004;42.566;23.164;2022-12-18T12:40:05;11.18;;;5.20;;
73697;SDS011;62004;42.566;23.164;2022-12-18T12:42:31;12.55;;;6.25;;
73697;SDS011;62004;42.566;23.164;2022-12-18T12:45:18;11.13;;;5.53;;
73697;SDS011;62004;42.566;23.164;2022-12-18T12:47:46;11.45;;;6.10;;
73697;SDS011;62004;42.566;23.164;2022-12-18T12:50:14;13.40;;;5.88;;
73697;SDS011;62004;42.566;23.164;2022-12-18T12:52:45;12.48;;;6.07;;
73697;SDS011;62004;42.566;23.164;2022-12-18T12:55:21;13.82;;;6.28;;
73697;SDS011;62004;42.566;23.164;2022-12-18T13:00:19;11.07;;;6.15;;
73697;SDS011;62004;42.566;23.164;2022-12-18T13:02:47;12.25;;;6.03;;
73697;SDS011;62004;42.566;23.164;2022-12-18T13:05:17;16.10;;;8.27;;
73697;SDS011;62004;42.566;23.164;2022-12-18T13:07:49;13.43;;;6.95;;
73697;SDS011;62004;42.566;23.164;2022-12-18T13:15:26;21.63;;;9.07;;
73697;SDS011;62004;42.566;23.164;2022-12-18T13:18:05;16.17;;;7.75;;
73697;SDS011;62004;42.566;23.164;2022-12-18T13:20:37;15.98;;;8.60;;
73697;SDS011;62004;42.566;23.164;2022-12-18T13:25:46;13.68;;;7.20;;
73697;SDS011;62004;42.566;23.164;2022-12-18T13:30:41;15.73;;;7.40;;
73697;SDS011;62004;42.566;23.164;2022-12-18T13:35:40;12.40;;;7.30;;
73697;SDS011;62004;42.566;23.164;2022-12-18T13:43:26;13.90;;;6.87;;
73697;SDS011;62004;42.566;23.164;2022-12-18T13:46:03;15.15;;;7.38;;
73697;SDS011;62004;42.566;23.164;2022-12-18T13:48:31;13.30;;;6.55;;
73697;SDS011;62004;42.566;23.164;2022-12-18T13:51:04;16.05;;;6.53;;
73697;SDS011;62004;42.566;23.164;2022-12-18T13:53:33;13.75;;;7.38;;
73697;SDS011;62004;42.566;23.164;2022-12-18T13:55:58;15.75;;;7.32;;
73697;SDS011;62004;42.566;23.164;2022-12-18T13:58:24;13.88;;;7.07;;
73697;SDS011;62004;42.566;23.164;2022-12-18T14:00:49;14.37;;;7.33;;
73697;SDS011;62004;42.566;23.164;2022-12-18T14:03:18;14.27;;;7.80;;
73697;SDS011;62004;42.566;23.164;2022-12-18T14:05:44;17.60;;;7.80;;
73697;SDS011;62004;42.566;23.164;2022-12-18T14:08:12;15.07;;;7.75;;
73697;SDS011;62004;42.566;23.164;2022-12-18T14:10:42;16.38;;;8.35;;
73697;SDS011;62004;42.566;23.164;2022-12-18T14:13:08;15.85;;;7.95;;
73697;SDS011;62004;42.566;23.164;2022-12-18T14:15:35;16.30;;;8.60;;
73697;SDS011;62004;42.566;23.164;2022-12-18T14:20:45;19.00;;;8.30;;
73697;SDS011;62004;42.566;23.164;2022-12-18T14:25:55;19.20;;;8.20;;
73697;SDS011;62004;42.566;23.164;2022-12-18T14:28:21;16.75;;;8.35;;
73697;SDS011;62004;42.566;23.164;2022-12-18T14:30:49;18.73;;;7.88;;
73697;SDS011;62004;42.566;23.164;2022-12-18T14:33:16;18.42;;;8.65;;
73697;SDS011;62004;42.566;23.164;2022-12-18T14:35:53;20.35;;;9.60;;
73697;SDS011;62004;42.566;23.164;2022-12-18T14:38:20;16.70;;;8.32;;
73697;SDS011;62004;42.566;23.164;2022-12-18T14:40:47;19.35;;;9.32;;
73697;SDS011;62004;42.566;23.164;2022-12-18T14:43:12;15.10;;;6.93;;
73697;SDS011;62004;42.566;23.164;2022-12-18T14:48:13;16.52;;;8.05;;
73697;SDS011;62004;42.566;23.164;2022-12-18T14:50:40;17.60;;;8.45;;
73697;SDS011;62004;42.566;23.164;2022-12-18T14:53:22;19.70;;;8.37;;
73697;SDS011;62004;42.566;23.164;2022-12-18T14:55:48;17.52;;;8.60;;
73697;SDS011;62004;42.566;23.164;2022-12-18T14:58:14;17.98;;;8.70;;
73697;SDS011;62004;42.566;23.164;2022-12-18T15:00:41;18.50;;;8.80;;
73697;SDS011;62004;42.566;23.164;2022-12-18T15:03:07;18.45;;;8.13;;
73697;SDS011;62004;42.566;23.164;2022-12-18T15:05:32;17.38;;;8.82;;
73697;SDS011;62004;42.566;23.164;2022-12-18T15:07:59;16.93;;;8.93;;
73697;SDS011;62004;42.566;23.164;2022-12-18T15:10:25;16.75;;;7.72;;
73697;SDS011;62004;42.566;23.164;2022-12-18T15:20:40;20.65;;;8.48;;
73697;SDS011;62004;42.566;23.164;2022-12-18T15:23:13;21.38;;;9.43;;
73697;SDS011;62004;42.566;23.164;2022-12-18T15:25:39;21.98;;;8.73;;
73697;SDS011;62004;42.566;23.164;2022-12-18T15:28:13;20.70;;;9.37;;
73697;SDS011;62004;42.566;23.164;2022-12-18T15:30:40;19.98;;;9.48;;
73697;SDS011;62004;42.566;23.164;2022-12-18T15:33:23;20.40;;;8.82;;
73697;SDS011;62004;42.566;23.164;2022-12-18T15:35:55;23.42;;;9.57;;
73697;SDS011;62004;42.566;23.164;2022-12-18T15:38:21;25.55;;;9.38;;
73697;SDS011;62004;42.566;23.164;2022-12-18T15:40:46;22.53;;;9.10;;
73697;SDS011;62004;42.566;23.164;2022-12-18T15:43:11;22.33;;;8.97;;
73697;SDS011;62004;42.566;23.164;2022-12-18T15:45:55;17.98;;;8.13;;
73697;SDS011;62004;42.566;23.164;2022-12-18T15:48:21;20.73;;;8.83;;
73697;SDS011;62004;42.566;23.164;2022-12-18T15:50:46;19.15;;;8.07;;
73697;SDS011;62004;42.566;23.164;2022-12-18T15:53:12;21.42;;;8.30;;
73697;SDS011;62004;42.566;23.164;2022-12-18T15:55:37;22.90;;;7.73;;
73697;SDS011;62004;42.566;23.164;2022-12-18T15:58:21;21.95;;;8.02;;
73697;SDS011;62004;42.566;23.164;2022-12-18T16:00:46;17.83;;;7.90;;
73697;SDS011;62004;42.566;23.164;2022-12-18T16:03:11;17.77;;;7.85;;
73697;SDS011;62004;42.566;23.164;2022-12-18T16:05:36;16.40;;;6.63;;
73697;SDS011;62004;42.566;23.164;2022-12-18T16:08:02;15.70;;;6.85;;
73697;SDS011;62004;42.566;23.164;2022-12-18T16:10:27;15.45;;;7.60;;
73697;SDS011;62004;42.566;23.164;2022-12-18T16:12:53;17.73;;;7.43;;
73697;SDS011;62004;42.566;23.164;2022-12-18T16:15:18;18.53;;;7.93;;
73697;SDS011;62004;42.566;23.164;2022-12-18T16:17:43;23.43;;;8.77;;
73697;SDS011;62004;42.566;23.164;2022-12-18T16:20:16;18.33;;;7.90;;
73697;SDS011;62004;42.566;23.164;2022-12-18T16:22:42;17.77;;;7.65;;